Etusivu
METAR-TAF:

METAR-TAF

Lentoasemat :

Kolding, Tanska

Vamdrup

Leveyspiiri: 55-26N, Pituuspiiri: 009-20E, korkeus merenpinnasta: 44 m

Tämänhetkinen sää

Tämä raportti tehtiin 23 minuuttia sitten, kello 20.20 UTC
Tuuli 1 kn etelästä/kaakosta
Lämpötila 14°C
Kosteus 88%
Ilmanpaine 1011 hPa

METAR: EKVD 232020Z AUTO 15001KT //// ///////// 14/12 Q1011

Aika: 22:43 (20:43 UTC)

Sääennuste

Tämä raportti tehtiin 10 tuntia ja 16 minuuttia sitten, kello 10.27 UTC
Ennuste voimassa 23. päivästä klo 10 UTC - 23. päivään klo 15 UTC
Tuuli 8 kn idästä
Näkyvyys 10 km tai enemmän
Hajonneita pilviä 2000 ft:n korkeudessa
Ajoittain
23. päivästä klo 10 UTC - 23. päivään klo 15 UTC
Näkyvyys: 2500 m
Hajonneita pilviä 400 ft:n korkeudessa
Hajanaisia pilviä 2000 ft:n korkeudessa, Cumulonimbus.
ukkosmyrsky, sadetta

TAF: EKVD 231027Z 2310/2315 09008KT 9999 BKN020 TEMPO 2310/2315 2500 TSRA BKN004 SCT020CB

Säähavainnot ja -ennusteet yli 4000 lentoasemalta (METAR- ja TAF-raportit).

Käytössä olevat sääasemat on merkitty karttaan keltaisilla ja punaisilla pisteillä.

Aseta hiiri pisteen päälle nähdäksesi sääaseman nimen.

Klikkaa sitten nähdäksesi säähavainnot ja -ennusteet.

Kartan vaihtaminen: klikkaa mustalla rastilla varustettuja vihreitä pisteitä, niin voit zoomata sisään; viivalla varustettua vihreää pistettä, niin voit zoomata ulos tai vihreitä nuolia, niin pääset viereisille kartoille.


METAR-TAF: